sensor_id;sensor_type;location;lat;lon;timestamp;P1;durP1;ratioP1;P2;durP2;ratioP2
12425;SDS011;6277;49.824;9.562;2022-07-22T00:02:05;3.90;;;3.30;;
12425;SDS011;6277;49.824;9.562;2022-07-22T00:04:31;4.10;;;3.70;;
12425;SDS011;6277;49.824;9.562;2022-07-22T00:06:57;4.45;;;3.65;;
12425;SDS011;6277;49.824;9.562;2022-07-22T00:09:23;4.28;;;3.67;;
12425;SDS011;6277;49.824;9.562;2022-07-22T00:11:48;3.90;;;3.50;;
12425;SDS011;6277;49.824;9.562;2022-07-22T00:14:14;3.75;;;3.45;;
12425;SDS011;6277;49.824;9.562;2022-07-22T00:16:40;3.80;;;3.15;;
12425;SDS011;6277;49.824;9.562;2022-07-22T00:19:06;3.70;;;3.30;;
12425;SDS011;6277;49.824;9.562;2022-07-22T00:21:31;3.95;;;3.45;;
12425;SDS011;6277;49.824;9.562;2022-07-22T00:23:57;3.85;;;3.10;;
12425;SDS011;6277;49.824;9.562;2022-07-22T00:26:22;4.55;;;3.85;;
12425;SDS011;6277;49.824;9.562;2022-07-22T00:28:48;3.20;;;2.90;;
12425;SDS011;6277;49.824;9.562;2022-07-22T00:31:14;4.20;;;3.03;;
12425;SDS011;6277;49.824;9.562;2022-07-22T00:33:39;5.03;;;3.90;;
12425;SDS011;6277;49.824;9.562;2022-07-22T00:36:05;3.72;;;3.35;;
12425;SDS011;6277;49.824;9.562;2022-07-22T00:38:31;3.38;;;3.08;;
12425;SDS011;6277;49.824;9.562;2022-07-22T00:40:57;3.85;;;3.45;;
12425;SDS011;6277;49.824;9.562;2022-07-22T00:43:22;3.92;;;3.33;;
12425;SDS011;6277;49.824;9.562;2022-07-22T00:45:48;3.17;;;2.88;;
12425;SDS011;6277;49.824;9.562;2022-07-22T00:48:14;4.85;;;3.42;;
12425;SDS011;6277;49.824;9.562;2022-07-22T00:50:40;3.80;;;3.40;;
12425;SDS011;6277;49.824;9.562;2022-07-22T00:53:06;4.28;;;3.70;;
12425;SDS011;6277;49.824;9.562;2022-07-22T00:55:32;4.00;;;3.35;;
12425;SDS011;6277;49.824;9.562;2022-07-22T00:57:59;4.22;;;3.80;;
12425;SDS011;6277;49.824;9.562;2022-07-22T01:00:25;4.35;;;3.28;;
12425;SDS011;6277;49.824;9.562;2022-07-22T01:02:51;3.80;;;3.40;;
12425;SDS011;6277;49.824;9.562;2022-07-22T01:05:17;4.07;;;3.40;;
12425;SDS011;6277;49.824;9.562;2022-07-22T01:07:43;4.18;;;3.78;;
12425;SDS011;6277;49.824;9.562;2022-07-22T01:10:08;4.20;;;3.78;;
12425;SDS011;6277;49.824;9.562;2022-07-22T01:12:35;3.72;;;3.35;;
12425;SDS011;6277;49.824;9.562;2022-07-22T01:15:01;4.03;;;3.22;;
12425;SDS011;6277;49.824;9.562;2022-07-22T01:17:26;4.07;;;3.67;;
12425;SDS011;6277;49.824;9.562;2022-07-22T01:19:52;4.65;;;3.47;;
12425;SDS011;6277;49.824;9.562;2022-07-22T01:22:18;4.57;;;3.63;;
12425;SDS011;6277;49.824;9.562;2022-07-22T01:24:43;3.60;;;3.30;;
12425;SDS011;6277;49.824;9.562;2022-07-22T01:27:09;5.13;;;3.72;;
12425;SDS011;6277;49.824;9.562;2022-07-22T01:29:34;4.20;;;3.80;;
12425;SDS011;6277;49.824;9.562;2022-07-22T01:32:00;3.63;;;3.20;;
12425;SDS011;6277;49.824;9.562;2022-07-22T01:34:26;3.85;;;3.45;;
12425;SDS011;6277;49.824;9.562;2022-07-22T01:36:51;3.97;;;3.55;;
12425;SDS011;6277;49.824;9.562;2022-07-22T01:39:17;3.17;;;2.92;;
12425;SDS011;6277;49.824;9.562;2022-07-22T01:41:43;3.90;;;3.47;;
12425;SDS011;6277;49.824;9.562;2022-07-22T01:44:09;9.10;;;4.43;;
12425;SDS011;6277;49.824;9.562;2022-07-22T01:46:34;4.22;;;3.55;;
12425;SDS011;6277;49.824;9.562;2022-07-22T01:49:00;3.72;;;3.42;;
12425;SDS011;6277;49.824;9.562;2022-07-22T01:51:26;4.00;;;3.60;;
12425;SDS011;6277;49.824;9.562;2022-07-22T01:53:51;4.53;;;3.95;;
12425;SDS011;6277;49.824;9.562;2022-07-22T01:56:17;4.35;;;3.80;;
12425;SDS011;6277;49.824;9.562;2022-07-22T01:58:43;3.92;;;3.55;;
12425;SDS011;6277;49.824;9.562;2022-07-22T02:01:08;4.22;;;3.83;;
12425;SDS011;6277;49.824;9.562;2022-07-22T02:03:34;3.67;;;3.38;;
12425;SDS011;6277;49.824;9.562;2022-07-22T02:06:00;3.95;;;3.53;;
12425;SDS011;6277;49.824;9.562;2022-07-22T02:08:25;5.22;;;3.75;;
12425;SDS011;6277;49.824;9.562;2022-07-22T02:10:51;4.40;;;3.95;;
12425;SDS011;6277;49.824;9.562;2022-07-22T02:13:17;4.40;;;3.55;;
12425;SDS011;6277;49.824;9.562;2022-07-22T02:15:42;4.18;;;3.63;;
12425;SDS011;6277;49.824;9.562;2022-07-22T02:18:26;4.25;;;3.80;;
12425;SDS011;6277;49.824;9.562;2022-07-22T02:20:52;3.92;;;3.58;;
12425;SDS011;6277;49.824;9.562;2022-07-22T02:23:17;4.28;;;3.40;;
12425;SDS011;6277;49.824;9.562;2022-07-22T02:25:43;3.22;;;2.83;;
12425;SDS011;6277;49.824;9.562;2022-07-22T02:28:09;3.45;;;3.15;;
12425;SDS011;6277;49.824;9.562;2022-07-22T02:30:34;4.57;;;3.75;;
12425;SDS011;6277;49.824;9.562;2022-07-22T02:33:00;4.10;;;3.60;;
12425;SDS011;6277;49.824;9.562;2022-07-22T02:35:26;4.65;;;3.97;;
12425;SDS011;6277;49.824;9.562;2022-07-22T02:37:51;3.67;;;3.35;;
12425;SDS011;6277;49.824;9.562;2022-07-22T02:40:17;4.05;;;3.20;;
12425;SDS011;6277;49.824;9.562;2022-07-22T02:42:42;4.15;;;3.10;;
12425;SDS011;6277;49.824;9.562;2022-07-22T02:45:08;4.07;;;3.67;;
12425;SDS011;6277;49.824;9.562;2022-07-22T02:47:34;4.10;;;3.50;;
12425;SDS011;6277;49.824;9.562;2022-07-22T02:50:00;4.35;;;3.40;;
12425;SDS011;6277;49.824;9.562;2022-07-22T02:52:25;4.50;;;3.97;;
12425;SDS011;6277;49.824;9.562;2022-07-22T02:54:51;4.30;;;3.90;;
12425;SDS011;6277;49.824;9.562;2022-07-22T02:57:16;5.05;;;3.67;;
12425;SDS011;6277;49.824;9.562;2022-07-22T02:59:42;4.20;;;3.63;;
12425;SDS011;6277;49.824;9.562;2022-07-22T03:02:08;8.10;;;3.88;;
12425;SDS011;6277;49.824;9.562;2022-07-22T03:04:33;4.40;;;3.17;;
12425;SDS011;6277;49.824;9.562;2022-07-22T03:06:59;4.70;;;3.72;;
12425;SDS011;6277;49.824;9.562;2022-07-22T03:09:24;4.72;;;3.55;;
12425;SDS011;6277;49.824;9.562;2022-07-22T03:11:50;3.65;;;3.35;;
12425;SDS011;6277;49.824;9.562;2022-07-22T03:14:16;4.78;;;3.70;;
12425;SDS011;6277;49.824;9.562;2022-07-22T03:16:43;3.78;;;3.42;;
12425;SDS011;6277;49.824;9.562;2022-07-22T03:19:09;4.15;;;3.53;;
12425;SDS011;6277;49.824;9.562;2022-07-22T03:21:34;3.78;;;3.45;;
12425;SDS011;6277;49.824;9.562;2022-07-22T03:24:00;4.82;;;3.60;;
12425;SDS011;6277;49.824;9.562;2022-07-22T03:26:25;4.13;;;3.53;;
12425;SDS011;6277;49.824;9.562;2022-07-22T03:28:51;4.05;;;3.50;;
12425;SDS011;6277;49.824;9.562;2022-07-22T03:31:17;3.80;;;3.30;;
12425;SDS011;6277;49.824;9.562;2022-07-22T03:33:42;4.30;;;3.90;;
12425;SDS011;6277;49.824;9.562;2022-07-22T03:36:08;4.22;;;3.50;;
12425;SDS011;6277;49.824;9.562;2022-07-22T03:38:35;4.35;;;3.78;;
12425;SDS011;6277;49.824;9.562;2022-07-22T03:41:01;4.47;;;2.90;;
12425;SDS011;6277;49.824;9.562;2022-07-22T03:43:27;3.53;;;3.22;;
12425;SDS011;6277;49.824;9.562;2022-07-22T03:45:52;5.00;;;3.40;;
12425;SDS011;6277;49.824;9.562;2022-07-22T03:48:18;5.93;;;4.22;;
12425;SDS011;6277;49.824;9.562;2022-07-22T03:50:44;6.85;;;4.97;;
12425;SDS011;6277;49.824;9.562;2022-07-22T03:53:09;5.07;;;4.32;;
12425;SDS011;6277;49.824;9.562;2022-07-22T03:55:35;4.00;;;3.60;;
12425;SDS011;6277;49.824;9.562;2022-07-22T03:58:01;5.55;;;3.75;;
12425;SDS011;6277;49.824;9.562;2022-07-22T04:00:26;4.28;;;3.55;;
12425;SDS011;6277;49.824;9.562;2022-07-22T04:02:52;4.38;;;3.60;;
12425;SDS011;6277;49.824;9.562;2022-07-22T04:05:17;4.30;;;3.90;;
12425;SDS011;6277;49.824;9.562;2022-07-22T04:07:43;5.22;;;4.20;;
12425;SDS011;6277;49.824;9.562;2022-07-22T04:10:08;4.00;;;3.60;;
12425;SDS011;6277;49.824;9.562;2022-07-22T04:12:39;6.10;;;4.53;;
12425;SDS011;6277;49.824;9.562;2022-07-22T04:15:06;5.38;;;4.22;;
12425;SDS011;6277;49.824;9.562;2022-07-22T04:17:33;4.38;;;3.95;;
12425;SDS011;6277;49.824;9.562;2022-07-22T04:19:59;4.75;;;3.92;;
12425;SDS011;6277;49.824;9.562;2022-07-22T04:22:26;3.97;;;3.47;;
12425;SDS011;6277;49.824;9.562;2022-07-22T04:24:52;5.05;;;4.18;;
12425;SDS011;6277;49.824;9.562;2022-07-22T04:27:17;4.97;;;4.43;;
12425;SDS011;6277;49.824;9.562;2022-07-22T04:29:43;4.63;;;4.15;;
12425;SDS011;6277;49.824;9.562;2022-07-22T04:32:08;4.90;;;4.40;;
12425;SDS011;6277;49.824;9.562;2022-07-22T04:34:34;5.13;;;4.53;;
12425;SDS011;6277;49.824;9.562;2022-07-22T04:36:59;4.75;;;4.18;;
12425;SDS011;6277;49.824;9.562;2022-07-22T04:39:25;5.80;;;4.35;;
12425;SDS011;6277;49.824;9.562;2022-07-22T04:41:50;4.65;;;4.22;;
12425;SDS011;6277;49.824;9.562;2022-07-22T04:44:16;4.63;;;4.13;;
12425;SDS011;6277;49.824;9.562;2022-07-22T04:46:41;4.38;;;3.97;;
12425;SDS011;6277;49.824;9.562;2022-07-22T04:49:07;4.32;;;3.92;;
12425;SDS011;6277;49.824;9.562;2022-07-22T04:51:33;4.22;;;3.83;;
12425;SDS011;6277;49.824;9.562;2022-07-22T04:53:58;4.13;;;3.72;;
12425;SDS011;6277;49.824;9.562;2022-07-22T04:56:24;4.63;;;4.22;;
12425;SDS011;6277;49.824;9.562;2022-07-22T04:58:49;4.70;;;4.03;;
12425;SDS011;6277;49.824;9.562;2022-07-22T05:01:16;5.35;;;4.28;;
12425;SDS011;6277;49.824;9.562;2022-07-22T05:03:41;4.50;;;4.10;;
12425;SDS011;6277;49.824;9.562;2022-07-22T05:06:07;4.80;;;4.30;;
12425;SDS011;6277;49.824;9.562;2022-07-22T05:08:33;4.55;;;3.88;;
12425;SDS011;6277;49.824;9.562;2022-07-22T05:10:59;4.10;;;3.70;;
12425;SDS011;6277;49.824;9.562;2022-07-22T05:13:24;4.28;;;3.80;;
12425;SDS011;6277;49.824;9.562;2022-07-22T05:15:50;5.05;;;4.55;;
12425;SDS011;6277;49.824;9.562;2022-07-22T05:18:15;4.80;;;4.10;;
12425;SDS011;6277;49.824;9.562;2022-07-22T05:20:41;5.47;;;4.30;;
12425;SDS011;6277;49.824;9.562;2022-07-22T05:23:07;4.20;;;3.80;;
12425;SDS011;6277;49.824;9.562;2022-07-22T05:25:32;5.90;;;4.20;;
12425;SDS011;6277;49.824;9.562;2022-07-22T05:27:58;5.18;;;4.30;;
12425;SDS011;6277;49.824;9.562;2022-07-22T05:30:24;4.03;;;3.63;;
12425;SDS011;6277;49.824;9.562;2022-07-22T05:32:50;4.78;;;3.97;;
12425;SDS011;6277;49.824;9.562;2022-07-22T05:35:16;4.03;;;3.58;;
12425;SDS011;6277;49.824;9.562;2022-07-22T05:37:42;4.30;;;3.72;;
12425;SDS011;6277;49.824;9.562;2022-07-22T05:40:07;5.88;;;3.65;;
12425;SDS011;6277;49.824;9.562;2022-07-22T05:42:33;5.28;;;4.28;;
12425;SDS011;6277;49.824;9.562;2022-07-22T05:44:59;3.92;;;3.58;;
12425;SDS011;6277;49.824;9.562;2022-07-22T05:47:25;4.20;;;3.80;;
12425;SDS011;6277;49.824;9.562;2022-07-22T05:49:50;4.55;;;3.78;;
12425;SDS011;6277;49.824;9.562;2022-07-22T05:52:16;4.53;;;3.80;;
12425;SDS011;6277;49.824;9.562;2022-07-22T05:54:41;3.92;;;3.40;;
12425;SDS011;6277;49.824;9.562;2022-07-22T05:57:07;3.70;;;3.40;;
12425;SDS011;6277;49.824;9.562;2022-07-22T05:59:36;3.85;;;3.55;;
12425;SDS011;6277;49.824;9.562;2022-07-22T06:02:02;3.42;;;3.13;;
12425;SDS011;6277;49.824;9.562;2022-07-22T06:04:28;4.13;;;3.72;;
12425;SDS011;6277;49.824;9.562;2022-07-22T06:06:53;3.58;;;3.20;;
12425;SDS011;6277;49.824;9.562;2022-07-22T06:09:19;3.33;;;3.03;;
12425;SDS011;6277;49.824;9.562;2022-07-22T06:11:44;3.95;;;3.50;;
12425;SDS011;6277;49.824;9.562;2022-07-22T06:14:10;3.90;;;3.60;;
12425;SDS011;6277;49.824;9.562;2022-07-22T06:16:36;3.78;;;3.40;;
12425;SDS011;6277;49.824;9.562;2022-07-22T06:19:02;4.30;;;3.90;;
12425;SDS011;6277;49.824;9.562;2022-07-22T06:21:27;4.00;;;3.63;;
12425;SDS011;6277;49.824;9.562;2022-07-22T06:23:53;3.92;;;3.55;;
12425;SDS011;6277;49.824;9.562;2022-07-22T06:26:18;3.13;;;2.88;;
12425;SDS011;6277;49.824;9.562;2022-07-22T06:28:44;3.55;;;3.25;;
12425;SDS011;6277;49.824;9.562;2022-07-22T06:31:09;3.88;;;3.58;;
12425;SDS011;6277;49.824;9.562;2022-07-22T06:33:35;3.75;;;3.45;;
12425;SDS011;6277;49.824;9.562;2022-07-22T06:36:01;3.85;;;3.30;;
12425;SDS011;6277;49.824;9.562;2022-07-22T06:38:27;3.28;;;3.03;;
12425;SDS011;6277;49.824;9.562;2022-07-22T06:40:52;4.10;;;3.40;;
12425;SDS011;6277;49.824;9.562;2022-07-22T06:43:18;3.97;;;3.67;;
12425;SDS011;6277;49.824;9.562;2022-07-22T06:45:44;3.92;;;3.28;;
12425;SDS011;6277;49.824;9.562;2022-07-22T06:48:09;3.50;;;3.20;;
12425;SDS011;6277;49.824;9.562;2022-07-22T06:50:35;3.45;;;3.15;;
12425;SDS011;6277;49.824;9.562;2022-07-22T06:53:00;4.10;;;3.47;;
12425;SDS011;6277;49.824;9.562;2022-07-22T06:55:26;3.83;;;3.53;;
12425;SDS011;6277;49.824;9.562;2022-07-22T06:57:51;4.45;;;3.65;;
12425;SDS011;6277;49.824;9.562;2022-07-22T07:00:17;3.17;;;2.88;;
12425;SDS011;6277;49.824;9.562;2022-07-22T07:02:43;3.53;;;3.22;;
12425;SDS011;6277;49.824;9.562;2022-07-22T07:05:09;3.28;;;2.97;;
12425;SDS011;6277;49.824;9.562;2022-07-22T07:07:35;3.85;;;3.55;;
12425;SDS011;6277;49.824;9.562;2022-07-22T07:10:01;3.65;;;3.30;;
12425;SDS011;6277;49.824;9.562;2022-07-22T07:12:27;3.75;;;3.40;;
12425;SDS011;6277;49.824;9.562;2022-07-22T07:14:53;3.92;;;3.53;;
12425;SDS011;6277;49.824;9.562;2022-07-22T07:17:18;3.55;;;3.17;;
12425;SDS011;6277;49.824;9.562;2022-07-22T07:19:44;3.65;;;3.35;;
12425;SDS011;6277;49.824;9.562;2022-07-22T07:22:10;3.65;;;3.35;;
12425;SDS011;6277;49.824;9.562;2022-07-22T07:24:35;3.58;;;3.28;;
12425;SDS011;6277;49.824;9.562;2022-07-22T07:27:01;4.10;;;3.75;;
12425;SDS011;6277;49.824;9.562;2022-07-22T07:29:26;3.65;;;3.35;;
12425;SDS011;6277;49.824;9.562;2022-07-22T07:31:52;4.22;;;3.17;;
12425;SDS011;6277;49.824;9.562;2022-07-22T07:34:18;3.50;;;3.20;;
12425;SDS011;6277;49.824;9.562;2022-07-22T07:36:43;3.83;;;3.38;;
12425;SDS011;6277;49.824;9.562;2022-07-22T07:39:09;2.78;;;2.58;;
12425;SDS011;6277;49.824;9.562;2022-07-22T07:41:34;4.88;;;3.28;;
12425;SDS011;6277;49.824;9.562;2022-07-22T07:44:00;3.72;;;3.40;;
12425;SDS011;6277;49.824;9.562;2022-07-22T07:46:25;4.00;;;3.60;;
12425;SDS011;6277;49.824;9.562;2022-07-22T07:48:51;3.45;;;3.15;;
12425;SDS011;6277;49.824;9.562;2022-07-22T07:51:17;3.42;;;3.13;;
12425;SDS011;6277;49.824;9.562;2022-07-22T07:53:42;3.92;;;3.38;;
12425;SDS011;6277;49.824;9.562;2022-07-22T07:56:08;3.42;;;3.13;;
12425;SDS011;6277;49.824;9.562;2022-07-22T07:58:33;3.80;;;3.45;;
12425;SDS011;6277;49.824;9.562;2022-07-22T08:00:59;3.70;;;3.40;;
12425;SDS011;6277;49.824;9.562;2022-07-22T08:03:24;3.58;;;3.28;;
12425;SDS011;6277;49.824;9.562;2022-07-22T08:05:50;3.42;;;3.13;;
12425;SDS011;6277;49.824;9.562;2022-07-22T08:08:16;3.45;;;3.15;;
12425;SDS011;6277;49.824;9.562;2022-07-22T08:10:41;3.97;;;3.67;;
12425;SDS011;6277;49.824;9.562;2022-07-22T08:13:07;4.30;;;3.20;;
12425;SDS011;6277;49.824;9.562;2022-07-22T08:15:33;3.40;;;3.10;;
12425;SDS011;6277;49.824;9.562;2022-07-22T08:17:58;3.60;;;3.30;;
12425;SDS011;6277;49.824;9.562;2022-07-22T08:20:24;3.72;;;3.42;;
12425;SDS011;6277;49.824;9.562;2022-07-22T08:22:52;3.65;;;3.35;;
12425;SDS011;6277;49.824;9.562;2022-07-22T08:25:18;4.00;;;3.30;;
12425;SDS011;6277;49.824;9.562;2022-07-22T08:27:44;3.67;;;3.15;;
12425;SDS011;6277;49.824;9.562;2022-07-22T08:30:09;4.47;;;3.92;;
12425;SDS011;6277;49.824;9.562;2022-07-22T08:32:35;3.60;;;3.30;;
12425;SDS011;6277;49.824;9.562;2022-07-22T08:35:01;3.40;;;3.13;;
12425;SDS011;6277;49.824;9.562;2022-07-22T08:37:29;3.13;;;2.92;;
12425;SDS011;6277;49.824;9.562;2022-07-22T08:39:55;3.40;;;3.10;;
12425;SDS011;6277;49.824;9.562;2022-07-22T08:42:21;3.30;;;3.05;;
12425;SDS011;6277;49.824;9.562;2022-07-22T08:44:47;3.25;;;2.95;;
12425;SDS011;6277;49.824;9.562;2022-07-22T08:47:14;3.63;;;3.33;;
12425;SDS011;6277;49.824;9.562;2022-07-22T08:49:39;3.30;;;3.00;;
12425;SDS011;6277;49.824;9.562;2022-07-22T08:52:05;3.63;;;3.33;;
12425;SDS011;6277;49.824;9.562;2022-07-22T08:54:31;3.83;;;3.47;;
12425;SDS011;6277;49.824;9.562;2022-07-22T08:56:57;4.13;;;3.47;;
12425;SDS011;6277;49.824;9.562;2022-07-22T08:59:22;3.50;;;3.20;;
12425;SDS011;6277;49.824;9.562;2022-07-22T09:04:31;3.40;;;3.10;;
12425;SDS011;6277;49.824;9.562;2022-07-22T09:07:14;2.90;;;2.70;;
12425;SDS011;6277;49.824;9.562;2022-07-22T09:09:48;5.68;;;3.53;;
12425;SDS011;6277;49.824;9.562;2022-07-22T09:12:15;3.70;;;3.40;;
12425;SDS011;6277;49.824;9.562;2022-07-22T09:14:44;4.13;;;3.80;;
12425;SDS011;6277;49.824;9.562;2022-07-22T09:17:27;4.30;;;3.42;;
12425;SDS011;6277;49.824;9.562;2022-07-22T09:20:00;3.65;;;3.33;;
12425;SDS011;6277;49.824;9.562;2022-07-22T09:22:41;3.53;;;3.22;;
12425;SDS011;6277;49.824;9.562;2022-07-22T09:27:54;3.85;;;3.10;;
12425;SDS011;6277;49.824;9.562;2022-07-22T09:30:53;3.03;;;2.72;;
12425;SDS011;6277;49.824;9.562;2022-07-22T09:33:18;3.50;;;3.17;;
12425;SDS011;6277;49.824;9.562;2022-07-22T09:35:45;3.90;;;3.50;;
12425;SDS011;6277;49.824;9.562;2022-07-22T09:38:12;3.50;;;3.20;;
12425;SDS011;6277;49.824;9.562;2022-07-22T09:40:40;4.38;;;3.40;;
12425;SDS011;6277;49.824;9.562;2022-07-22T09:43:11;3.95;;;3.55;;
12425;SDS011;6277;49.824;9.562;2022-07-22T09:45:47;4.00;;;3.55;;
12425;SDS011;6277;49.824;9.562;2022-07-22T09:48:15;3.60;;;3.30;;
12425;SDS011;6277;49.824;9.562;2022-07-22T09:50:43;4.40;;;3.72;;
12425;SDS011;6277;49.824;9.562;2022-07-22T09:53:09;3.72;;;3.42;;
12425;SDS011;6277;49.824;9.562;2022-07-22T09:55:35;3.67;;;3.28;;
12425;SDS011;6277;49.824;9.562;2022-07-22T09:58:04;3.58;;;3.28;;
12425;SDS011;6277;49.824;9.562;2022-07-22T10:00:32;3.85;;;3.55;;
12425;SDS011;6277;49.824;9.562;2022-07-22T10:03:00;4.20;;;3.80;;
12425;SDS011;6277;49.824;9.562;2022-07-22T10:05:28;3.72;;;3.40;;
12425;SDS011;6277;49.824;9.562;2022-07-22T10:07:56;3.88;;;3.47;;
12425;SDS011;6277;49.824;9.562;2022-07-22T10:10:24;4.18;;;3.47;;
12425;SDS011;6277;49.824;9.562;2022-07-22T10:12:51;4.22;;;3.65;;
12425;SDS011;6277;49.824;9.562;2022-07-22T10:15:18;4.07;;;3.22;;
12425;SDS011;6277;49.824;9.562;2022-07-22T10:17:49;3.65;;;3.33;;
12425;SDS011;6277;49.824;9.562;2022-07-22T10:20:18;3.90;;;3.33;;
12425;SDS011;6277;49.824;9.562;2022-07-22T10:25:15;3.35;;;3.15;;
12425;SDS011;6277;49.824;9.562;2022-07-22T10:30:10;3.05;;;2.75;;
12425;SDS011;6277;49.824;9.562;2022-07-22T10:32:37;6.60;;;3.60;;
12425;SDS011;6277;49.824;9.562;2022-07-22T10:45:33;3.47;;;3.15;;
12425;SDS011;6277;49.824;9.562;2022-07-22T10:48:01;3.38;;;3.08;;
12425;SDS011;6277;49.824;9.562;2022-07-22T10:50:49;3.28;;;2.95;;
12425;SDS011;6277;49.824;9.562;2022-07-22T10:53:18;3.30;;;3.00;;
12425;SDS011;6277;49.824;9.562;2022-07-22T10:55:59;3.78;;;2.72;;
12425;SDS011;6277;49.824;9.562;2022-07-22T11:01:08;3.83;;;3.00;;
12425;SDS011;6277;49.824;9.562;2022-07-22T11:03:37;3.08;;;2.78;;
12425;SDS011;6277;49.824;9.562;2022-07-22T11:08:45;3.47;;;3.00;;
12425;SDS011;6277;49.824;9.562;2022-07-22T11:11:12;3.40;;;3.10;;
12425;SDS011;6277;49.824;9.562;2022-07-22T11:13:38;3.72;;;2.92;;
12425;SDS011;6277;49.824;9.562;2022-07-22T11:16:18;6.00;;;3.42;;
12425;SDS011;6277;49.824;9.562;2022-07-22T11:21:17;3.83;;;3.10;;
12425;SDS011;6277;49.824;9.562;2022-07-22T11:23:44;2.83;;;2.63;;
12425;SDS011;6277;49.824;9.562;2022-07-22T11:26:14;4.00;;;2.85;;
12425;SDS011;6277;49.824;9.562;2022-07-22T11:28:41;3.40;;;3.10;;
12425;SDS011;6277;49.824;9.562;2022-07-22T11:31:09;3.42;;;3.00;;
12425;SDS011;6277;49.824;9.562;2022-07-22T11:33:38;3.08;;;2.60;;
12425;SDS011;6277;49.824;9.562;2022-07-22T11:36:07;2.95;;;2.58;;
12425;SDS011;6277;49.824;9.562;2022-07-22T11:38:41;2.60;;;2.40;;
12425;SDS011;6277;49.824;9.562;2022-07-22T11:41:17;3.10;;;2.75;;
12425;SDS011;6277;49.824;9.562;2022-07-22T11:43:44;2.88;;;2.60;;
12425;SDS011;6277;49.824;9.562;2022-07-22T11:46:12;4.10;;;3.15;;
12425;SDS011;6277;49.824;9.562;2022-07-22T11:48:38;2.75;;;2.50;;
12425;SDS011;6277;49.824;9.562;2022-07-22T11:51:05;2.70;;;2.50;;
12425;SDS011;6277;49.824;9.562;2022-07-22T11:53:31;3.35;;;3.05;;
12425;SDS011;6277;49.824;9.562;2022-07-22T11:56:01;3.50;;;3.13;;
12425;SDS011;6277;49.824;9.562;2022-07-22T11:58:41;3.40;;;3.10;;
12425;SDS011;6277;49.824;9.562;2022-07-22T12:01:09;4.97;;;3.33;;
12425;SDS011;6277;49.824;9.562;2022-07-22T12:03:37;3.38;;;3.08;;
12425;SDS011;6277;49.824;9.562;2022-07-22T12:06:06;3.35;;;2.75;;
12425;SDS011;6277;49.824;9.562;2022-07-22T12:08:34;2.90;;;2.58;;
12425;SDS011;6277;49.824;9.562;2022-07-22T12:11:04;2.65;;;2.42;;
12425;SDS011;6277;49.824;9.562;2022-07-22T12:13:30;4.15;;;2.80;;
12425;SDS011;6277;49.824;9.562;2022-07-22T12:15:56;3.45;;;2.88;;
12425;SDS011;6277;49.824;9.562;2022-07-22T12:18:23;3.00;;;2.80;;
12425;SDS011;6277;49.824;9.562;2022-07-22T12:20:51;3.78;;;2.70;;
12425;SDS011;6277;49.824;9.562;2022-07-22T12:23:17;3.25;;;2.95;;
12425;SDS011;6277;49.824;9.562;2022-07-22T12:25:50;3.30;;;2.63;;
12425;SDS011;6277;49.824;9.562;2022-07-22T12:28:20;3.10;;;2.80;;
12425;SDS011;6277;49.824;9.562;2022-07-22T12:30:46;3.30;;;3.00;;
12425;SDS011;6277;49.824;9.562;2022-07-22T12:33:14;3.40;;;2.83;;
12425;SDS011;6277;49.824;9.562;2022-07-22T12:35:40;3.38;;;2.80;;
12425;SDS011;6277;49.824;9.562;2022-07-22T12:38:07;2.83;;;2.63;;
12425;SDS011;6277;49.824;9.562;2022-07-22T12:40:34;3.10;;;2.50;;
12425;SDS011;6277;49.824;9.562;2022-07-22T12:43:02;2.72;;;2.42;;
12425;SDS011;6277;49.824;9.562;2022-07-22T12:45:33;2.92;;;2.60;;
12425;SDS011;6277;49.824;9.562;2022-07-22T12:53:05;2.90;;;2.70;;
12425;SDS011;6277;49.824;9.562;2022-07-22T12:55:33;3.20;;;2.90;;
12425;SDS011;6277;49.824;9.562;2022-07-22T12:58:04;2.78;;;2.58;;
12425;SDS011;6277;49.824;9.562;2022-07-22T13:00:31;4.22;;;2.75;;
12425;SDS011;6277;49.824;9.562;2022-07-22T13:02:59;3.03;;;2.42;;
12425;SDS011;6277;49.824;9.562;2022-07-22T13:05:26;2.80;;;2.60;;
12425;SDS011;6277;49.824;9.562;2022-07-22T13:07:52;2.85;;;2.65;;
12425;SDS011;6277;49.824;9.562;2022-07-22T13:10:19;4.32;;;2.95;;
12425;SDS011;6277;49.824;9.562;2022-07-22T13:12:50;3.20;;;2.88;;
12425;SDS011;6277;49.824;9.562;2022-07-22T13:15:16;3.00;;;2.70;;
12425;SDS011;6277;49.824;9.562;2022-07-22T13:17:42;2.80;;;2.60;;
12425;SDS011;6277;49.824;9.562;2022-07-22T13:20:08;3.25;;;2.95;;
12425;SDS011;6277;49.824;9.562;2022-07-22T13:22:35;2.83;;;2.53;;
12425;SDS011;6277;49.824;9.562;2022-07-22T13:25:01;3.75;;;3.03;;
12425;SDS011;6277;49.824;9.562;2022-07-22T13:27:26;2.78;;;2.58;;
12425;SDS011;6277;49.824;9.562;2022-07-22T13:29:52;3.58;;;2.83;;
12425;SDS011;6277;49.824;9.562;2022-07-22T13:32:18;3.03;;;2.72;;
12425;SDS011;6277;49.824;9.562;2022-07-22T13:34:43;3.28;;;2.85;;
12425;SDS011;6277;49.824;9.562;2022-07-22T13:37:09;2.97;;;2.75;;
12425;SDS011;6277;49.824;9.562;2022-07-22T13:39:35;2.72;;;2.53;;
12425;SDS011;6277;49.824;9.562;2022-07-22T13:42:01;3.67;;;2.42;;
12425;SDS011;6277;49.824;9.562;2022-07-22T13:44:26;2.95;;;2.72;;
12425;SDS011;6277;49.824;9.562;2022-07-22T13:46:52;3.17;;;2.88;;
12425;SDS011;6277;49.824;9.562;2022-07-22T13:49:18;3.13;;;2.70;;
12425;SDS011;6277;49.824;9.562;2022-07-22T13:51:43;2.65;;;2.45;;
12425;SDS011;6277;49.824;9.562;2022-07-22T13:54:09;3.10;;;2.80;;
12425;SDS011;6277;49.824;9.562;2022-07-22T13:56:34;3.40;;;2.72;;
12425;SDS011;6277;49.824;9.562;2022-07-22T13:59:00;3.25;;;2.92;;
12425;SDS011;6277;49.824;9.562;2022-07-22T14:01:27;2.72;;;2.53;;
12425;SDS011;6277;49.824;9.562;2022-07-22T14:03:53;2.88;;;2.58;;
12425;SDS011;6277;49.824;9.562;2022-07-22T14:06:18;2.85;;;2.65;;
12425;SDS011;6277;49.824;9.562;2022-07-22T14:08:44;2.95;;;2.47;;
12425;SDS011;6277;49.824;9.562;2022-07-22T14:11:10;2.38;;;2.17;;
12425;SDS011;6277;49.824;9.562;2022-07-22T14:13:35;2.70;;;2.47;;
12425;SDS011;6277;49.824;9.562;2022-07-22T14:16:01;3.35;;;2.75;;
12425;SDS011;6277;49.824;9.562;2022-07-22T14:18:45;3.00;;;2.40;;
12425;SDS011;6277;49.824;9.562;2022-07-22T14:21:11;3.75;;;2.70;;
12425;SDS011;6277;49.824;9.562;2022-07-22T14:23:37;2.65;;;2.25;;
12425;SDS011;6277;49.824;9.562;2022-07-22T14:26:02;2.70;;;2.50;;
12425;SDS011;6277;49.824;9.562;2022-07-22T14:28:28;5.20;;;3.10;;
12425;SDS011;6277;49.824;9.562;2022-07-22T14:30:53;4.10;;;2.53;;
12425;SDS011;6277;49.824;9.562;2022-07-22T14:33:19;2.40;;;2.20;;
12425;SDS011;6277;49.824;9.562;2022-07-22T14:35:44;2.60;;;2.38;;
12425;SDS011;6277;49.824;9.562;2022-07-22T14:38:10;2.22;;;2.13;;
12425;SDS011;6277;49.824;9.562;2022-07-22T14:40:35;3.05;;;2.75;;
12425;SDS011;6277;49.824;9.562;2022-07-22T14:43:01;3.35;;;2.65;;
12425;SDS011;6277;49.824;9.562;2022-07-22T14:45:27;5.18;;;2.95;;
12425;SDS011;6277;49.824;9.562;2022-07-22T14:47:52;2.90;;;2.70;;
12425;SDS011;6277;49.824;9.562;2022-07-22T14:50:18;3.05;;;2.75;;
12425;SDS011;6277;49.824;9.562;2022-07-22T14:52:43;2.83;;;2.63;;
12425;SDS011;6277;49.824;9.562;2022-07-22T14:55:09;4.25;;;2.72;;
12425;SDS011;6277;49.824;9.562;2022-07-22T14:57:34;2.72;;;2.47;;
12425;SDS011;6277;49.824;9.562;2022-07-22T15:00:00;2.80;;;2.45;;
12425;SDS011;6277;49.824;9.562;2022-07-22T15:02:26;2.65;;;2.42;;
12425;SDS011;6277;49.824;9.562;2022-07-22T15:04:51;2.40;;;2.30;;
12425;SDS011;6277;49.824;9.562;2022-07-22T15:07:17;2.40;;;2.20;;
12425;SDS011;6277;49.824;9.562;2022-07-22T15:09:42;2.67;;;2.47;;
12425;SDS011;6277;49.824;9.562;2022-07-22T15:12:08;2.67;;;2.47;;
12425;SDS011;6277;49.824;9.562;2022-07-22T15:14:33;2.72;;;2.45;;
12425;SDS011;6277;49.824;9.562;2022-07-22T15:16:59;4.57;;;2.33;;
12425;SDS011;6277;49.824;9.562;2022-07-22T15:19:25;2.67;;;2.47;;
12425;SDS011;6277;49.824;9.562;2022-07-22T15:21:50;2.67;;;2.33;;
12425;SDS011;6277;49.824;9.562;2022-07-22T15:24:16;2.97;;;2.38;;
12425;SDS011;6277;49.824;9.562;2022-07-22T15:26:41;2.55;;;2.35;;
12425;SDS011;6277;49.824;9.562;2022-07-22T15:29:07;2.45;;;2.25;;
12425;SDS011;6277;49.824;9.562;2022-07-22T15:31:33;2.55;;;2.35;;